Terminal Aerodrome Forecast
Issued by NWS

Home | Current Version | Previous Version | Text Only | Print | Product List | Glossary On
Versions: 1 2 3 4 5 6 7 8 9 10 11 12 13 14 15 16 17 18 19
000
FTPQ31 PGUM 252134 RRV
TAFGRO
TAF

TAF
PGWT 252134Z 2522/2618 12013KT P6SM VCSH FEW016 SCT040 BKN120
      TEMPO 2522/2601 -SHRA SCT014 BKN030=

USA.gov is the U.S. government's official web portal to all federal, state and local government web resources and services.